Time;durP1;ratioP1;P1;durP2;ratioP2;P2;SDS_P1;SDS_P2;PMS_P1;PMS_P2;Temp;Humidity;BMP_temperature;BMP_pressure;BME280_temperature;BME280_humidity;BME280_pressure;Samples;Min_cycle;Max_cycle;Signal;HPM_P1;HPM_P2
2021/10/31 00:02:09;;;;;;;25.40;14.40;;;;;;;11.27;87.50;97513.69;4971164;28;20039;-61
2021/10/31 00:04:35;;;;;;;20.73;13.27;;;;;;;11.94;87.68;97521.50;4972885;28;20034;-63
2021/10/31 00:07:00;;;;;;;22.98;14.70;;;;;;;11.27;86.85;97521.50;4970312;28;20050;-61
2021/10/31 00:09:26;;;;;;;20.67;13.73;;;;;;;11.72;86.04;97522.63;4972876;28;20026;-61
2021/10/31 00:11:51;;;;;;;22.63;14.68;;;;;;;11.97;85.74;97523.97;4972759;28;20073;-63
2021/10/31 00:14:16;;;;;;;26.20;15.10;;;;;;;11.91;82.95;97532.13;4972753;28;20026;-64
2021/10/31 00:16:42;;;;;;;25.35;14.38;;;;;;;12.12;84.50;97525.75;4973056;28;20571;-63
2021/10/31 00:19:07;;;;;;;24.02;14.13;;;;;;;12.24;81.42;97520.75;4975308;28;20027;-62
2021/10/31 00:21:33;;;;;;;23.92;14.52;;;;;;;11.81;83.17;97512.63;4967928;28;20489;-63
2021/10/31 00:24:02;;;;;;;21.50;13.82;;;;;;;11.92;82.50;97512.91;4972525;28;20076;-63
2021/10/31 00:26:27;;;;;;;24.45;14.60;;;;;;;12.05;81.95;97513.94;4972287;28;20082;-62
2021/10/31 00:28:52;;;;;;;21.15;13.88;;;;;;;11.92;82.51;97523.38;4972896;28;20073;-62
2021/10/31 00:31:18;;;;;;;21.45;14.15;;;;;;;12.14;81.98;97518.66;4970748;28;20058;-62
2021/10/31 00:33:43;;;;;;;20.23;12.73;;;;;;;12.61;81.11;97518.69;4972764;28;20026;-61
2021/10/31 00:36:08;;;;;;;22.80;14.20;;;;;;;12.26;80.34;97517.16;4973411;28;20042;-63
2021/10/31 00:38:34;;;;;;;23.17;14.10;;;;;;;12.01;81.51;97522.88;4975326;28;20027;-63
2021/10/31 00:40:59;;;;;;;25.38;14.82;;;;;;;11.71;84.67;97520.97;4968676;28;20118;-63
2021/10/31 00:43:25;;;;;;;22.08;13.60;;;;;;;12.09;82.81;97525.06;4972851;28;20041;-63
2021/10/31 00:45:50;;;;;;;23.90;15.13;;;;;;;11.67;84.32;97515.97;4969685;28;20121;-64
2021/10/31 00:48:16;;;;;;;21.63;13.95;;;;;;;12.07;82.68;97521.69;4972456;28;20033;-61
2021/10/31 00:50:42;;;;;;;21.02;12.90;;;;;;;12.18;82.83;97529.78;4969924;28;20723;-61
2021/10/31 00:53:08;;;;;;;23.00;15.07;;;;;;;12.03;82.38;97525.41;4973550;28;20066;-63
2021/10/31 00:55:34;;;;;;;18.70;12.15;;;;;;;12.14;84.76;97529.09;4972467;28;20119;-63
2021/10/31 00:58:00;;;;;;;20.20;12.90;;;;;;;11.43;86.56;97520.72;4972106;28;20022;-62
2021/10/31 01:00:26;;;;;;;22.65;14.73;;;;;;;11.28;87.76;97523.19;4969876;28;20033;-64
2021/10/31 01:02:52;;;;;;;22.23;13.75;;;;;;;11.54;84.83;97497.47;4973188;28;20041;-63
2021/10/31 01:05:24;;;;;;;19.95;12.70;;;;;;;11.87;85.40;97504.44;4974166;28;20030;-63
2021/10/31 01:08:04;;;;;;;25.00;14.65;;;;;;;12.28;83.42;97498.75;4972511;28;20031;-64
2021/10/31 01:10:41;;;;;;;20.02;13.65;;;;;;;12.12;82.10;97504.00;4971613;28;20678;-64
2021/10/31 01:13:29;;;;;;;21.58;14.55;;;;;;;12.06;82.23;97499.94;4969718;28;20044;-63
2021/10/31 01:16:25;;;;;;;20.55;12.90;;;;;;;12.13;83.49;97511.75;4971310;28;20062;-61
2021/10/31 01:19:09;;;;;;;24.75;14.57;;;;;;;12.12;81.35;97517.91;4972958;28;20516;-64
2021/10/31 01:22:15;;;;;;;20.35;12.77;;;;;;;11.99;83.36;97522.13;4967661;28;20129;-63
2021/10/31 01:24:59;;;;;;;21.38;14.35;;;;;;;11.86;84.07;97518.44;4969803;28;20023;-63
2021/10/31 01:27:24;;;;;;;23.15;14.73;;;;;;;11.96;82.58;97524.88;4970727;28;20038;-62
2021/10/31 01:30:41;;;;;;;19.30;13.20;;;;;;;12.10;83.07;97514.53;4967923;28;20662;-64
2021/10/31 01:33:25;;;;;;;23.95;14.57;;;;;;;11.97;84.47;97513.50;4970175;28;20034;-64
2021/10/31 01:36:32;;;;;;;23.45;14.73;;;;;;;12.02;83.66;97519.34;4968577;28;20042;-62
2021/10/31 01:39:26;;;;;;;20.90;13.15;;;;;;;12.10;83.75;97511.91;4947601;28;20098;-62
2021/10/31 01:42:22;;;;;;;21.83;14.80;;;;;;;12.27;83.41;97523.22;4969331;28;20575;-63
2021/10/31 01:44:56;;;;;;;25.77;14.40;;;;;;;11.97;82.53;97526.59;4971594;28;20034;-61
2021/10/31 01:47:40;;;;;;;22.35;14.98;;;;;;;12.07;82.88;97521.69;4971571;28;20034;-61
2021/10/31 01:50:08;;;;;;;21.42;14.43;;;;;;;11.90;83.55;97514.78;4969375;28;20962;-61
2021/10/31 01:52:48;;;;;;;18.63;11.85;;;;;;;12.19;84.06;97517.56;4968611;28;20267;-61
2021/10/31 01:55:21;;;;;;;19.17;12.73;;;;;;;12.05;83.50;97518.31;4970285;28;20140;-63
2021/10/31 01:57:51;;;;;;;19.30;12.90;;;;;;;12.38;83.43;97513.00;4968817;28;20034;-64
2021/10/31 02:00:18;;;;;;;22.80;13.55;;;;;;;12.27;82.77;97512.75;4968133;28;20034;-62
2021/10/31 02:02:45;;;;;;;23.92;13.77;;;;;;;12.24;82.65;97507.69;4968578;28;20038;-63
2021/10/31 02:05:14;;;;;;;21.13;13.98;;;;;;;12.40;81.99;97508.50;4969126;28;20030;-63
2021/10/31 02:07:43;;;;;;;24.23;13.75;;;;;;;12.34;82.53;97506.25;4968854;28;20033;-63
2021/10/31 02:10:11;;;;;;;22.42;13.95;;;;;;;12.49;84.12;97492.31;4969131;28;20034;-63
2021/10/31 02:12:39;;;;;;;22.77;14.10;;;;;;;12.15;82.27;97499.44;4974160;28;20074;-62
2021/10/31 02:15:06;;;;;;;17.30;11.40;;;;;;;12.60;84.20;97503.94;4976533;28;20121;-63
2021/10/31 02:17:32;;;;;;;19.23;12.30;;;;;;;12.47;82.50;97514.25;4975314;28;20058;-62
2021/10/31 02:19:58;;;;;;;20.73;13.63;;;;;;;12.43;81.51;97510.13;4976193;28;20066;-64
2021/10/31 02:22:29;;;;;;;21.25;13.32;;;;;;;12.37;83.06;97508.72;4971166;28;20069;-64
2021/10/31 02:24:56;;;;;;;19.95;13.63;;;;;;;12.40;82.44;97494.59;4974186;28;20026;-62
2021/10/31 02:27:23;;;;;;;20.67;12.55;;;;;;;12.13;82.49;97493.44;4975468;28;20053;-64
2021/10/31 02:29:52;;;;;;;17.35;10.77;;;;;;;12.35;83.47;97507.91;4975833;28;20026;-64
2021/10/31 02:32:21;;;;;;;20.00;13.88;;;;;;;12.43;82.41;97495.28;4976806;28;20034;-64
2021/10/31 02:34:46;;;;;;;19.98;12.82;;;;;;;12.09;83.75;97505.00;4983952;28;20125;-63
2021/10/31 02:37:12;;;;;;;20.08;12.05;;;;;;;12.56;83.08;97499.81;4974413;28;20595;-62
2021/10/31 02:39:38;;;;;;;19.60;13.23;;;;;;;12.50;82.69;97501.84;4974422;28;20039;-63
2021/10/31 02:42:04;;;;;;;24.88;13.43;;;;;;;12.38;80.95;97494.69;4972285;28;20034;-63
2021/10/31 02:44:30;;;;;;;16.17;11.48;;;;;;;12.64;85.39;97501.03;4972309;28;20038;-62
2021/10/31 02:46:56;;;;;;;20.20;13.13;;;;;;;12.30;82.88;97495.13;4974251;28;20049;-62
2021/10/31 02:49:22;;;;;;;20.63;13.45;;;;;;;12.14;81.43;97512.59;4978089;28;20121;-61
2021/10/31 02:51:52;;;;;;;22.38;13.07;;;;;;;12.15;80.96;97514.28;4974371;28;20801;-64
2021/10/31 02:54:55;;;;;;;18.95;12.57;;;;;;;12.15;81.95;97507.28;4975993;28;20041;-61
2021/10/31 02:58:00;;;;;;;21.70;13.27;;;;;;;11.99;83.05;97509.03;4976175;28;20038;-63
2021/10/31 03:00:28;;;;;;;17.95;11.52;;;;;;;12.14;83.67;97526.50;4973783;28;20808;-63
2021/10/31 03:02:54;;;;;;;19.50;12.77;;;;;;;12.11;83.46;97523.19;4975861;28;20022;-62
2021/10/31 03:05:21;;;;;;;17.60;12.07;;;;;;;12.19;83.33;97528.88;4975535;28;20026;-66
2021/10/31 03:07:46;;;;;;;21.48;12.30;;;;;;;12.08;83.77;97529.47;4976396;28;20027;-63
2021/10/31 03:10:16;;;;;;;21.73;13.70;;;;;;;11.97;83.33;97525.75;4973529;28;20878;-62
2021/10/31 03:12:42;;;;;;;19.85;12.10;;;;;;;12.05;83.67;97523.56;4974029;28;20096;-63
2021/10/31 03:15:08;;;;;;;18.95;12.75;;;;;;;12.07;83.23;97532.97;4973963;28;20491;-60
2021/10/31 03:17:33;;;;;;;19.55;12.77;;;;;;;12.13;82.12;97532.66;4976996;28;20515;-63
2021/10/31 03:19:59;;;;;;;21.17;12.40;;;;;;;11.99;83.04;97534.34;4976794;28;20703;-62
2021/10/31 03:22:24;;;;;;;18.95;12.65;;;;;;;11.99;82.86;97527.34;4973474;28;20492;-63
2021/10/31 03:24:49;;;;;;;24.55;12.88;;;;;;;11.55;83.21;97531.34;4973022;28;20018;-66
2021/10/31 03:27:15;;;;;;;17.67;11.25;;;;;;;11.69;84.79;97535.00;4973834;28;20035;-61
2021/10/31 03:29:40;;;;;;;20.45;13.27;;;;;;;11.58;84.26;97530.38;4972671;28;20591;-63
2021/10/31 03:32:06;;;;;;;21.58;13.65;;;;;;;11.70;84.06;97521.88;4971849;28;20045;-63
2021/10/31 03:34:31;;;;;;;19.75;12.68;;;;;;;11.92;83.55;97528.59;4972335;28;20444;-63
2021/10/31 03:36:57;;;;;;;15.88;10.57;;;;;;;12.28;85.26;97530.13;4972840;28;20049;-60
2021/10/31 03:39:22;;;;;;;17.52;11.88;;;;;;;12.25;84.41;97531.13;4974760;28;20027;-63
2021/10/31 03:41:48;;;;;;;20.13;12.50;;;;;;;12.21;82.38;97529.63;4969889;28;20034;-62
2021/10/31 03:44:16;;;;;;;22.67;13.50;;;;;;;12.05;81.99;97528.78;4972238;28;20117;-61
2021/10/31 03:46:42;;;;;;;20.42;11.65;;;;;;;11.98;83.27;97527.41;4970769;28;20556;-61
2021/10/31 03:49:08;;;;;;;24.10;14.25;;;;;;;11.88;84.48;97527.03;4972789;28;20031;-63
2021/10/31 03:51:35;;;;;;;21.02;13.45;;;;;;;11.93;82.73;97525.91;4970716;28;20150;-63
2021/10/31 03:54:00;;;;;;;21.05;13.27;;;;;;;11.89;84.39;97518.28;4972479;28;20511;-61
2021/10/31 03:56:25;;;;;;;20.58;13.07;;;;;;;12.03;82.40;97521.00;4972103;28;20043;-63
2021/10/31 03:58:51;;;;;;;21.23;13.45;;;;;;;11.95;83.69;97524.06;4973431;28;20113;-61
2021/10/31 04:01:17;;;;;;;21.27;13.35;;;;;;;11.64;83.52;97524.81;4970766;28;20117;-63
2021/10/31 04:03:43;;;;;;;21.10;13.95;;;;;;;11.61;83.69;97524.97;4971155;28;20515;-61
2021/10/31 04:06:08;;;;;;;23.13;13.85;;;;;;;11.54;83.37;97505.31;4970884;28;20192;-63
2021/10/31 04:08:34;;;;;;;21.25;12.98;;;;;;;11.51;85.03;97518.56;4973106;28;20026;-62
2021/10/31 04:10:59;;;;;;;22.00;14.25;;;;;;;11.25;84.20;97506.84;4967185;28;20039;-60
2021/10/31 04:13:24;;;;;;;21.63;12.50;;;;;;;11.37;84.16;97511.44;4969735;28;20054;-61
2021/10/31 04:15:50;;;;;;;23.58;14.07;;;;;;;11.24;85.84;97510.38;4970106;28;20134;-62
2021/10/31 04:18:16;;;;;;;26.50;15.45;;;;;;;11.21;87.53;97500.94;4969134;28;20030;-62
2021/10/31 04:20:41;;;;;;;21.27;13.15;;;;;;;10.94;86.69;97498.81;4968312;28;20047;-62
2021/10/31 04:23:06;;;;;;;18.92;12.15;;;;;;;11.15;87.07;97507.31;4969005;28;20030;-60
2021/10/31 04:25:32;;;;;;;21.25;13.18;;;;;;;11.17;84.99;97515.06;4974081;28;20107;-64
2021/10/31 04:27:57;;;;;;;16.65;10.55;;;;;;;11.33;85.11;97515.13;4971622;28;20447;-63
2021/10/31 04:30:22;;;;;;;24.10;14.02;;;;;;;11.00;85.32;97527.19;4971713;28;20485;-61
2021/10/31 04:32:48;;;;;;;21.58;13.20;;;;;;;11.17;86.32;97523.75;4973676;28;20467;-63
2021/10/31 04:35:13;;;;;;;25.63;15.38;;;;;;;11.13;87.38;97529.19;4971575;28;20023;-60
2021/10/31 04:37:41;;;;;;;21.10;12.45;;;;;;;11.11;86.42;97531.03;4973472;28;20034;-61
2021/10/31 04:40:10;;;;;;;24.25;14.98;;;;;;;10.92;84.73;97531.97;4971782;28;20062;-61
2021/10/31 04:42:37;;;;;;;22.55;13.15;;;;;;;10.90;89.18;97522.50;4971195;28;20031;-61
2021/10/31 04:45:02;;;;;;;17.23;11.27;;;;;;;10.81;88.64;97529.06;4973168;28;20121;-61
2021/10/31 04:47:28;;;;;;;23.85;13.90;;;;;;;10.88;87.26;97520.00;4971349;28;20129;-61
2021/10/31 04:49:53;;;;;;;20.67;12.77;;;;;;;10.63;87.37;97517.75;4972327;28;20408;-60
2021/10/31 04:52:18;;;;;;;25.10;15.15;;;;;;;10.45;87.69;97521.25;4971070;28;20065;-62
2021/10/31 04:54:44;;;;;;;25.83;15.52;;;;;;;10.46;88.96;97518.59;4970353;28;20113;-63
2021/10/31 04:57:09;;;;;;;27.90;15.93;;;;;;;10.48;86.18;97524.56;4972060;28;20582;-60
2021/10/31 04:59:34;;;;;;;22.67;14.80;;;;;;;10.44;87.37;97524.78;4971603;28;20034;-60
2021/10/31 05:02:00;;;;;;;21.63;13.05;;;;;;;10.67;86.35;97521.06;4969460;28;20134;-63
2021/10/31 05:04:25;;;;;;;25.83;15.15;;;;;;;10.38;87.74;97520.69;4972237;28;20113;-62
2021/10/31 05:06:51;;;;;;;22.27;12.02;;;;;;;10.38;88.77;97515.47;4970715;28;20034;-60
2021/10/31 05:09:17;;;;;;;25.77;15.77;;;;;;;10.19;87.43;97515.50;4970560;28;20034;-63
2021/10/31 05:11:42;;;;;;;27.77;15.95;;;;;;;9.95;88.45;97513.13;4969984;28;20038;-60
2021/10/31 05:14:08;;;;;;;22.98;12.35;;;;;;;10.25;90.16;97509.13;4971313;28;20045;-62
2021/10/31 05:16:35;;;;;;;23.52;14.00;;;;;;;10.41;87.45;97507.53;4968997;28;20033;-61
2021/10/31 05:19:02;;;;;;;21.25;11.30;;;;;;;10.44;89.37;97510.00;4971662;28;20058;-61
2021/10/31 05:21:27;;;;;;;23.52;14.77;;;;;;;10.27;87.67;97509.91;4967608;28;20035;-62
2021/10/31 05:23:53;;;;;;;23.58;13.45;;;;;;;10.07;89.91;97506.47;4967598;28;20375;-60
2021/10/31 05:26:18;;;;;;;21.50;12.77;;;;;;;10.20;88.55;97515.44;4970845;28;20035;-63
2021/10/31 05:28:43;;;;;;;24.60;14.63;;;;;;;9.98;88.40;97512.97;4969768;28;20027;-63
2021/10/31 05:31:09;;;;;;;19.90;12.18;;;;;;;10.01;89.84;97511.97;4970682;28;20688;-60
2021/10/31 05:33:35;;;;;;;26.92;16.25;;;;;;;9.34;90.84;97510.69;4971860;28;20054;-62
2021/10/31 05:36:00;;;;;;;24.42;15.48;;;;;;;9.64;90.16;97505.84;4971865;28;20031;-63
2021/10/31 05:38:25;;;;;;;27.55;15.88;;;;;;;9.01;92.66;97513.81;4970923;28;20027;-62
2021/10/31 05:40:51;;;;;;;28.83;16.00;;;;;;;8.63;96.19;97518.84;4970216;28;20527;-63
2021/10/31 05:43:17;;;;;;;22.38;12.05;;;;;;;9.67;92.19;97500.50;4970436;28;20156;-61
2021/10/31 05:45:43;;;;;;;20.02;13.05;;;;;;;9.56;90.88;97510.56;4970480;28;20069;-61
2021/10/31 05:48:10;;;;;;;28.73;16.25;;;;;;;8.96;94.52;97506.19;4967982;28;20038;-62
2021/10/31 05:50:36;;;;;;;27.50;16.05;;;;;;;9.33;91.95;97512.41;4969775;28;20035;-61
2021/10/31 05:53:02;;;;;;;19.05;12.15;;;;;;;9.77;89.37;97509.59;4969437;28;20029;-61
2021/10/31 05:55:28;;;;;;;25.58;14.75;;;;;;;9.48;90.26;97507.44;4970268;28;20121;-63
2021/10/31 05:57:53;;;;;;;22.70;13.32;;;;;;;9.53;89.62;97508.09;4970093;28;20113;-60
2021/10/31 06:00:19;;;;;;;27.60;14.73;;;;;;;9.51;91.53;97502.97;4967877;28;20035;-60
2021/10/31 06:02:45;;;;;;;15.65;10.10;;;;;;;9.58;91.19;97496.56;4967498;28;20088;-61
2021/10/31 06:05:12;;;;;;;22.70;13.15;;;;;;;9.58;91.89;97506.13;4969645;28;20026;-63
2021/10/31 06:07:38;;;;;;;26.50;14.38;;;;;;;9.48;92.60;97512.66;4971433;28;20030;-62
2021/10/31 06:10:04;;;;;;;30.33;15.35;;;;;;;9.22;93.24;97496.44;4968133;28;20026;-62
2021/10/31 06:12:29;;;;;;;31.75;16.60;;;;;;;9.36;92.12;97493.22;4969846;28;20960;-62
2021/10/31 06:14:57;;;;;;;23.58;14.52;;;;;;;9.46;91.35;97494.50;4968956;28;20030;-63
2021/10/31 06:17:22;;;;;;;25.73;14.70;;;;;;;9.58;90.68;97490.53;4977762;28;20638;-62
2021/10/31 06:19:48;;;;;;;27.77;15.45;;;;;;;9.54;88.89;97487.19;4967538;28;20034;-62
2021/10/31 06:22:13;;;;;;;26.98;15.77;;;;;;;9.45;88.93;97487.63;4968977;28;20042;-61
2021/10/31 06:24:39;;;;;;;24.88;15.07;;;;;;;9.66;88.71;97485.78;4969890;28;20030;-61
2021/10/31 06:27:04;;;;;;;20.90;13.18;;;;;;;10.14;89.13;97480.97;4968916;28;20116;-63
2021/10/31 06:29:30;;;;;;;28.30;15.18;;;;;;;10.06;88.97;97489.16;4970777;28;20033;-61
2021/10/31 06:31:58;;;;;;;27.23;16.10;;;;;;;10.02;86.24;97492.84;4968930;28;20770;-63
2021/10/31 06:34:23;;;;;;;21.83;13.15;;;;;;;10.43;88.14;97503.06;4970273;28;20038;-62
2021/10/31 06:36:48;;;;;;;27.02;16.17;;;;;;;10.04;86.19;97509.25;4970950;28;20042;-62
2021/10/31 06:39:14;;;;;;;22.80;13.40;;;;;;;10.08;87.62;97500.34;4967544;28;20058;-61
2021/10/31 06:41:39;;;;;;;25.05;16.23;;;;;;;10.06;88.63;97512.63;4964338;28;20034;-63
2021/10/31 06:44:05;;;;;;;24.25;14.75;;;;;;;9.93;89.03;97503.69;4967700;28;20057;-61
2021/10/31 06:46:32;;;;;;;22.73;13.88;;;;;;;9.48;90.92;97510.88;4967059;28;20731;-63
2021/10/31 06:48:58;;;;;;;23.67;14.27;;;;;;;9.54;92.08;97501.97;4970066;28;20899;-61
2021/10/31 06:51:23;;;;;;;27.45;15.48;;;;;;;9.79;87.91;97512.97;4968803;28;20062;-62
2021/10/31 06:53:49;;;;;;;21.27;14.00;;;;;;;9.53;88.80;97521.13;4969244;28;20491;-62
2021/10/31 06:56:16;;;;;;;22.83;14.15;;;;;;;9.90;90.96;97509.88;4967892;28;20038;-64
2021/10/31 06:58:41;;;;;;;23.05;14.27;;;;;;;10.50;86.85;97514.06;4971239;28;20019;-63
2021/10/31 07:01:07;;;;;;;22.02;14.00;;;;;;;11.09;86.50;97501.56;4970437;28;20050;-61
2021/10/31 07:03:32;;;;;;;24.27;14.57;;;;;;;11.39;84.23;97504.34;4971128;28;20033;-64
2021/10/31 07:05:59;;;;;;;23.25;14.98;;;;;;;12.20;82.35;97490.50;4969338;28;20049;-63
2021/10/31 07:08:24;;;;;;;20.77;13.48;;;;;;;13.14;81.56;97493.81;4971114;28;20018;-62
2021/10/31 07:10:50;;;;;;;23.75;14.65;;;;;;;14.09;75.25;97492.38;4970177;28;20030;-63
2021/10/31 07:13:15;;;;;;;24.85;15.00;;;;;;;14.70;78.22;97487.59;4970331;28;20045;-61
2021/10/31 07:15:40;;;;;;;22.85;14.82;;;;;;;15.56;72.70;97502.81;4971612;28;20112;-61
2021/10/31 07:18:06;;;;;;;18.65;12.77;;;;;;;17.84;64.24;97490.53;4973339;28;20023;-64
2021/10/31 07:20:32;;;;;;;19.33;13.07;;;;;;;16.83;62.01;97488.59;4975662;28;21134;-62
2021/10/31 07:22:58;;;;;;;17.92;11.90;;;;;;;18.22;58.63;97490.16;4972358;28;20571;-64
2021/10/31 07:25:25;;;;;;;19.63;13.07;;;;;;;18.87;54.06;97488.41;4973160;28;20198;-62
2021/10/31 07:27:52;;;;;;;18.27;12.65;;;;;;;19.85;52.27;97494.31;4974966;28;20039;-65
2021/10/31 07:30:17;;;;;;;16.67;12.13;;;;;;;21.86;47.71;97484.94;4971175;28;20054;-61
2021/10/31 07:32:42;;;;;;;19.77;12.10;;;;;;;21.73;46.34;97486.13;4972528;28;20061;-61
2021/10/31 07:35:10;;;;;;;17.60;12.10;;;;;;;21.61;48.15;97486.44;4968694;28;20062;-62
2021/10/31 07:37:36;;;;;;;14.80;11.57;;;;;;;22.62;44.86;97486.47;4972194;28;20505;-60
2021/10/31 07:40:05;;;;;;;21.08;14.98;;;;;;;22.57;44.39;97483.44;4971540;28;20145;-63
2021/10/31 07:42:30;;;;;;;20.50;12.93;;;;;;;21.45;44.83;97476.41;4971143;28;20108;-62
2021/10/31 07:44:58;;;;;;;16.70;12.10;;;;;;;20.30;47.72;97469.19;4975285;28;20030;-63
2021/10/31 07:47:24;;;;;;;19.48;13.30;;;;;;;18.75;50.85;97475.34;4974704;28;20062;-64
2021/10/31 07:49:51;;;;;;;19.65;13.40;;;;;;;18.34;51.48;97469.00;4973691;28;20519;-64
2021/10/31 07:52:17;;;;;;;17.70;13.07;;;;;;;18.18;52.47;97469.41;4971337;28;20047;-62
2021/10/31 07:54:43;;;;;;;20.70;13.85;;;;;;;17.29;54.46;97480.66;4971957;28;20037;-63
2021/10/31 07:57:08;;;;;;;19.10;13.93;;;;;;;17.10;55.55;97475.97;4970460;28;20031;-64
2021/10/31 07:59:34;;;;;;;18.65;12.68;;;;;;;16.64;57.38;97482.03;4972172;28;20045;-64
2021/10/31 08:01:59;;;;;;;18.92;12.55;;;;;;;17.24;55.73;97480.22;4971636;28;20069;-61
2021/10/31 08:04:24;;;;;;;18.52;12.27;;;;;;;16.76;58.17;97478.50;4971153;28;20026;-61
2021/10/31 08:06:50;;;;;;;17.38;12.55;;;;;;;17.50;55.22;97482.63;4969338;28;20054;-63
2021/10/31 08:09:16;;;;;;;17.42;12.52;;;;;;;16.29;58.58;97480.19;4970359;28;20026;-63
2021/10/31 08:11:42;;;;;;;20.70;12.35;;;;;;;16.04;59.39;97481.09;4969644;28;20078;-63
2021/10/31 08:14:10;;;;;;;17.10;12.25;;;;;;;16.97;57.13;97480.50;4967756;28;20027;-62
2021/10/31 08:16:36;;;;;;;18.67;13.10;;;;;;;16.00;59.44;97475.22;4972052;28;20109;-63
2021/10/31 08:19:03;;;;;;;20.52;13.23;;;;;;;16.10;60.17;97469.31;4972308;28;20544;-63
2021/10/31 08:21:28;;;;;;;17.88;12.95;;;;;;;16.51;59.46;97470.72;4969472;28;20121;-62
2021/10/31 08:23:54;;;;;;;18.10;12.10;;;;;;;16.30;61.82;97466.09;4973454;28;20105;-64
2021/10/31 08:26:19;;;;;;;17.08;11.57;;;;;;;17.18;58.04;97466.66;4971014;28;20042;-63
2021/10/31 08:28:45;;;;;;;15.75;11.82;;;;;;;16.34;58.75;97464.91;4971460;28;20068;-63
2021/10/31 08:31:10;;;;;;;15.70;11.18;;;;;;;16.72;59.54;97469.13;4968315;28;20580;-62
2021/10/31 08:33:43;;;;;;;15.32;9.60;;;;;;;17.14;61.66;97466.88;4970285;28;20033;-64
2021/10/31 08:36:09;;;;;;;14.50;10.60;;;;;;;17.75;54.90;97460.44;4969033;28;20047;-63
2021/10/31 08:38:35;;;;;;;16.70;11.70;;;;;;;17.77;55.00;97461.16;4971341;28;20655;-64
2021/10/31 08:41:01;;;;;;;15.85;10.73;;;;;;;17.83;55.87;97458.06;4967310;28;20153;-62
2021/10/31 08:43:27;;;;;;;18.02;11.73;;;;;;;17.61;54.52;97458.03;4971912;28;20030;-64
2021/10/31 08:45:53;;;;;;;17.63;11.48;;;;;;;17.97;53.39;97461.41;4967947;28;20501;-62
2021/10/31 08:48:19;;;;;;;14.55;10.13;;;;;;;17.51;58.46;97464.03;4970676;28;20081;-63
2021/10/31 08:50:45;;;;;;;13.25;8.82;;;;;;;17.45;59.09;97453.16;4970216;28;20500;-64
2021/10/31 08:53:11;;;;;;;17.05;10.73;;;;;;;17.45;56.10;97453.97;4972481;28;20604;-61
2021/10/31 08:55:40;;;;;;;14.25;9.60;;;;;;;17.85;59.26;97455.34;4969505;28;20066;-64
2021/10/31 08:58:10;;;;;;;12.30;7.85;;;;;;;17.66;56.83;97448.84;4968459;28;20504;-63
2021/10/31 09:00:39;;;;;;;19.75;11.68;;;;;;;17.51;55.46;97442.13;4970644;28;20035;-63
2021/10/31 09:03:05;;;;;;;14.48;10.32;;;;;;;17.52;57.19;97433.25;4972603;28;20069;-61
2021/10/31 09:05:32;;;;;;;12.38;8.63;;;;;;;17.47;57.22;97438.88;4971473;28;20030;-64
2021/10/31 09:07:57;;;;;;;17.33;11.57;;;;;;;18.01;53.99;97429.41;4976976;28;20036;-62
2021/10/31 09:10:23;;;;;;;16.15;11.13;;;;;;;18.26;53.73;97428.22;4970911;28;20030;-59
2021/10/31 09:12:49;;;;;;;13.75;9.35;;;;;;;18.09;55.78;97431.41;4969497;28;20440;-58
2021/10/31 09:15:14;;;;;;;16.90;11.25;;;;;;;18.23;53.30;97425.88;4969051;28;20113;-59
2021/10/31 09:17:39;;;;;;;14.10;9.43;;;;;;;18.62;53.86;97422.72;4971050;28;20140;-57
2021/10/31 09:20:05;;;;;;;13.30;8.65;;;;;;;18.25;59.53;97413.38;4970307;28;20031;-57
2021/10/31 09:22:31;;;;;;;17.02;9.90;;;;;;;18.71;55.55;97410.53;4967659;28;20038;-59
2021/10/31 09:24:58;;;;;;;15.35;10.82;;;;;;;18.40;53.19;97407.81;4966545;28;20054;-62
2021/10/31 09:27:23;;;;;;;17.02;11.43;;;;;;;18.34;52.33;97397.72;4965274;28;20035;-58
2021/10/31 09:29:48;;;;;;;16.92;10.73;;;;;;;18.14;53.99;97394.94;4970662;28;20029;-59
2021/10/31 09:32:14;;;;;;;19.15;10.20;;;;;;;18.63;53.24;97390.03;4970738;28;20031;-59
2021/10/31 09:34:39;;;;;;;15.65;9.63;;;;;;;18.20;53.98;97391.78;4969378;28;20728;-58
2021/10/31 09:37:05;;;;;;;17.65;10.85;;;;;;;18.08;51.99;97383.06;4967865;28;20117;-58
2021/10/31 09:39:30;;;;;;;16.92;10.57;;;;;;;17.76;52.74;97374.25;4971074;28;20078;-60
2021/10/31 09:41:56;;;;;;;16.52;10.50;;;;;;;17.85;52.31;97381.47;4969640;28;20496;-57
2021/10/31 09:44:27;;;;;;;15.88;10.02;;;;;;;18.37;52.00;97381.66;4966678;28;20025;-57
2021/10/31 09:46:52;;;;;;;15.05;10.10;;;;;;;18.96;51.89;97369.69;4963356;28;20158;-59
2021/10/31 09:49:18;;;;;;;15.43;10.30;;;;;;;18.93;50.96;97377.88;4966575;28;20026;-59
2021/10/31 09:51:50;;;;;;;16.00;9.95;;;;;;;18.45;52.47;97368.63;4963073;28;20130;-60
2021/10/31 09:54:16;;;;;;;15.00;10.03;;;;;;;18.50;51.11;97371.72;4964239;28;20045;-59
2021/10/31 09:56:42;;;;;;;15.88;10.00;;;;;;;18.41;52.30;97361.94;4965730;28;20274;-61
2021/10/31 09:59:14;;;;;;;14.55;10.05;;;;;;;18.68;51.44;97364.91;4968378;28;20141;-60
2021/10/31 10:04:29;;;;;;;16.20;9.48;;;;;;;18.90;50.70;97355.19;4967810;28;20365;-59
2021/10/31 10:06:56;;;;;;;13.32;9.30;;;;;;;18.90;50.16;97347.28;4979048;28;20144;-61
2021/10/31 10:09:23;;;;;;;13.35;9.23;;;;;;;19.17;50.40;97348.50;4967020;28;20081;-58
2021/10/31 10:11:49;;;;;;;14.35;9.02;;;;;;;19.27;49.22;97349.38;4963227;28;20540;-59
2021/10/31 10:14:35;;;;;;;12.15;8.32;;;;;;;19.34;48.54;97332.03;4966189;28;20551;-61
2021/10/31 10:17:06;;;;;;;14.20;9.13;;;;;;;19.05;48.47;97332.72;4963742;28;20022;-60
2021/10/31 10:19:37;;;;;;;14.07;8.80;;;;;;;19.37;48.44;97312.41;4966747;28;20041;-59
2021/10/31 10:22:05;;;;;;;12.55;8.90;;;;;;;19.36;48.19;97316.03;4964400;28;20419;-60
2021/10/31 10:24:33;;;;;;;13.13;8.40;;;;;;;19.67;48.20;97310.66;4967413;28;20027;-59
2021/10/31 10:27:02;;;;;;;13.43;8.75;;;;;;;19.95;47.73;97311.69;4966067;28;20043;-59
2021/10/31 10:29:30;;;;;;;11.43;7.63;;;;;;;19.80;47.40;97296.22;4965216;28;20023;-59
2021/10/31 10:32:02;;;;;;;10.93;8.07;;;;;;;20.15;47.83;97289.53;4963606;28;20121;-61
2021/10/31 10:34:53;;;;;;;14.13;8.05;;;;;;;19.63;48.29;97292.44;4969283;28;20061;-61
2021/10/31 10:37:37;;;;;;;11.73;7.45;;;;;;;20.17;47.65;97282.28;4969517;28;20027;-58
2021/10/31 10:40:04;;;;;;;10.90;7.35;;;;;;;20.03;46.80;97288.88;4970529;28;20041;-63
2021/10/31 10:42:40;;;;;;;10.38;7.15;;;;;;;20.39;46.09;97285.63;4967324;28;20049;-60
2021/10/31 10:45:08;;;;;;;9.63;6.72;;;;;;;20.72;45.20;97275.53;4968049;28;20031;-60
2021/10/31 10:47:41;;;;;;;8.80;6.55;;;;;;;20.98;44.97;97267.75;4971817;28;20030;-61
2021/10/31 10:50:14;;;;;;;10.40;7.03;;;;;;;20.50;45.89;97260.78;4970547;28;20118;-60
2021/10/31 10:52:42;;;;;;;10.70;6.75;;;;;;;20.90;45.01;97265.03;4977763;28;20084;-60
2021/10/31 10:55:25;;;;;;;8.38;6.00;;;;;;;21.23;44.13;97250.34;4968832;28;20022;-59
2021/10/31 10:58:00;;;;;;;20.95;7.05;;;;;;;20.71;45.20;97244.72;4969001;28;20736;-60
2021/10/31 11:00:42;;;;;;;9.93;6.60;;;;;;;20.65;45.38;97240.00;4968003;28;20750;-57
2021/10/31 11:03:15;;;;;;;8.32;6.43;;;;;;;21.32;43.84;97236.19;4972013;28;20030;-59
2021/10/31 11:05:58;;;;;;;9.40;6.57;;;;;;;21.47;43.61;97231.25;4968324;28;20485;-61
2021/10/31 11:08:24;;;;;;;9.35;6.30;;;;;;;21.66;43.48;97219.63;4968276;28;20064;-60
2021/10/31 11:11:12;;;;;;;9.57;6.22;;;;;;;21.07;44.81;97213.03;4969709;28;20054;-59
2021/10/31 11:13:50;;;;;;;9.50;6.38;;;;;;;21.51;44.51;97199.94;4969435;28;20035;-59
2021/10/31 11:16:15;;;;;;;9.45;6.43;;;;;;;21.31;43.89;97200.03;4967723;28;20111;-60
2021/10/31 11:18:42;;;;;;;9.13;6.50;;;;;;;21.21;44.19;97193.97;4970781;28;20034;-56
2021/10/31 11:21:07;;;;;;;10.05;6.65;;;;;;;21.10;44.30;97181.75;4964832;28;20086;-60
2021/10/31 11:23:34;;;;;;;9.25;6.50;;;;;;;21.56;43.93;97181.75;4965651;28;20023;-60
2021/10/31 11:26:03;;;;;;;10.98;6.30;;;;;;;21.72;43.54;97175.72;4967881;28;20042;-58
2021/10/31 11:28:30;;;;;;;11.02;6.45;;;;;;;21.60;43.30;97175.16;4970081;28;20030;-59